createdAt,value
2019-01-21T00:06:08.795Z,-0.84
2019-01-21T00:10:22.217Z,-0.85
2019-01-21T00:16:43.093Z,-0.88
2019-01-21T00:20:57.469Z,-0.93
2019-01-21T00:22:01.367Z,-0.91
2019-01-21T00:23:05.538Z,-0.92
2019-01-21T00:24:09.364Z,-0.94
2019-01-21T00:27:19.676Z,-0.97
2019-01-21T00:28:23.543Z,-0.98
2019-01-21T00:29:27.412Z,-0.97
2019-01-21T00:32:37.648Z,-0.98
2019-01-21T00:33:41.572Z,-0.99
2019-01-21T00:34:45.472Z,-0.98
2019-01-21T00:36:52.800Z,-0.99
2019-01-21T00:37:56.618Z,-1.00
2019-01-21T00:45:26.884Z,-1.06
2019-01-21T00:47:34.173Z,-1.05
2019-01-21T00:48:38.032Z,-1.06
2019-01-21T00:49:41.910Z,-1.05
2019-01-21T00:50:45.779Z,-1.07
2019-01-21T00:52:53.876Z,-1.09
2019-01-21T00:53:57.750Z,-1.09
2019-01-21T00:57:08.031Z,-1.08
2019-01-21T00:58:11.907Z,-1.08
2019-01-21T00:59:16.209Z,-1.10
2019-01-21T01:00:21.051Z,-1.10
2019-01-21T01:01:24.922Z,-1.13
2019-01-21T01:03:31.978Z,-1.15
2019-01-21T01:05:39.025Z,-1.16
2019-01-21T01:12:01.175Z,-1.20
2019-01-21T01:16:15.362Z,-1.21
2019-01-21T01:18:22.415Z,-1.20
2019-01-21T01:21:33.535Z,-1.23
2019-01-21T01:23:41.619Z,-1.23
2019-01-21T01:24:45.479Z,-1.23
2019-01-21T01:28:58.924Z,-1.24
2019-01-21T01:31:07.021Z,-1.25
2019-01-21T01:34:17.238Z,-1.27
2019-01-21T01:35:21.113Z,-1.29
2019-01-21T01:42:44.057Z,-1.32
2019-01-21T01:45:55.557Z,-1.32
2019-01-21T01:50:09.976Z,-1.35
2019-01-21T01:52:17.019Z,-1.35
2019-01-21T01:53:20.984Z,-1.36
2019-01-21T01:54:25.204Z,-1.38
2019-01-21T01:55:29.619Z,-1.39
2019-01-21T01:57:37.697Z,-1.38
2019-01-21T01:59:44.748Z,-1.39
2019-01-21T02:01:51.847Z,-1.39
2019-01-21T02:03:58.927Z,-1.41
2019-01-21T02:06:06.000Z,-1.43
2019-01-21T02:08:14.027Z,-1.44
2019-01-21T02:09:17.900Z,-1.46
2019-01-21T02:10:21.803Z,-1.45
2019-01-21T02:14:35.211Z,-1.47
2019-01-21T02:15:39.138Z,-1.45
2019-01-21T02:22:00.736Z,-1.48
2019-01-21T02:24:09.828Z,-1.46
2019-01-21T02:27:20.894Z,-1.49
2019-01-21T02:30:50.918Z,-1.49
2019-01-21T02:31:59.236Z,-1.49
2019-01-21T02:35:22.275Z,-1.54
2019-01-21T02:37:51.839Z,-1.56
2019-01-21T02:42:22.823Z,-1.56
2019-01-21T02:43:32.480Z,-1.54
2019-01-21T02:49:35.801Z,-1.56
2019-01-21T03:02:44.803Z,-1.64
2019-01-21T03:04:08.207Z,-1.65
2019-01-21T03:05:18.466Z,-1.65
2019-01-21T03:06:24.924Z,-1.64
2019-01-21T03:08:39.251Z,-1.65
2019-01-21T03:09:47.793Z,-1.65
2019-01-21T03:12:05.025Z,-1.66
2019-01-21T03:13:13.126Z,-1.66
2019-01-21T03:14:22.552Z,-1.66
2019-01-21T03:22:55.329Z,-1.73
2019-01-21T03:25:35.229Z,-1.73
2019-01-21T03:26:46.700Z,-1.71
2019-01-21T03:27:57.006Z,-1.68
2019-01-21T03:30:12.119Z,-1.70
2019-01-21T03:32:22.877Z,-1.74
2019-01-21T03:35:44.881Z,-1.78
2019-01-21T03:36:54.451Z,-1.79
2019-01-21T03:41:27.278Z,-1.78
2019-01-21T03:45:15.655Z,-1.77
2019-01-21T03:46:25.184Z,-1.77
2019-01-21T03:48:36.426Z,-1.78
2019-01-21T03:53:32.855Z,-1.79
2019-01-21T03:54:36.860Z,-1.80
2019-01-21T03:55:40.722Z,-1.80
2019-01-21T03:59:22.606Z,-1.79
2019-01-21T04:00:36.945Z,-1.81
2019-01-21T04:06:59.722Z,-1.82
2019-01-21T04:12:49.342Z,-1.88
2019-01-21T04:14:01.697Z,-1.88
2019-01-21T04:15:24.112Z,-1.88
2019-01-21T04:16:32.630Z,-1.88
2019-01-21T04:20:05.751Z,-1.88
2019-01-21T04:21:11.292Z,-1.88
2019-01-21T04:22:21.644Z,-1.90
2019-01-21T04:27:01.472Z,-1.89
2019-01-21T04:29:19.207Z,-1.89
2019-01-21T04:35:13.109Z,-1.90
2019-01-21T04:37:40.245Z,-1.92
2019-01-21T04:47:41.994Z,-1.94
2019-01-21T04:48:48.421Z,-1.93
2019-01-21T04:53:38.340Z,-1.92
2019-01-21T04:58:12.764Z,-1.94
2019-01-21T05:04:18.403Z,-1.96
2019-01-21T05:05:27.874Z,-1.98
2019-01-21T05:06:34.427Z,-1.99
2019-01-21T05:11:04.889Z,-2.01
2019-01-21T05:12:14.672Z,-1.99
2019-01-21T05:13:26.462Z,-1.99
2019-01-21T05:14:37.139Z,-1.99
2019-01-21T05:15:43.844Z,-2.00
2019-01-21T05:16:49.393Z,-2.00
2019-01-21T05:17:59.240Z,-1.99
2019-01-21T05:19:15.771Z,-1.99
2019-01-21T05:21:30.932Z,-2.00
2019-01-21T05:22:43.628Z,-2.00
2019-01-21T05:23:50.052Z,-2.01
2019-01-21T05:26:16.221Z,-2.01
2019-01-21T05:28:55.336Z,-2.02
2019-01-21T05:31:08.535Z,-2.02
2019-01-21T05:33:23.500Z,-2.02
2019-01-21T05:34:33.001Z,-2.03
2019-01-21T05:35:38.555Z,-2.03
2019-01-21T05:36:59.292Z,-2.02
2019-01-21T05:39:13.468Z,-2.02
2019-01-21T05:40:21.840Z,-2.03
2019-01-21T05:42:38.801Z,-2.04
2019-01-21T05:43:44.333Z,-2.05
2019-01-21T05:48:52.212Z,-2.08
2019-01-21T05:50:01.719Z,-2.09
2019-01-21T05:51:11.231Z,-2.09
2019-01-21T05:52:20.872Z,-2.08
2019-01-21T05:53:27.328Z,-2.08
2019-01-21T05:58:00.242Z,-2.12
2019-01-21T06:01:46.073Z,-2.13
2019-01-21T06:04:23.032Z,-2.13
2019-01-21T06:05:30.593Z,-2.13
2019-01-21T06:13:41.286Z,-2.15
2019-01-21T06:16:03.451Z,-2.17
2019-01-21T06:17:09.920Z,-2.18
2019-01-21T06:18:27.881Z,-2.17
2019-01-21T06:21:59.888Z,-2.18
2019-01-21T06:23:24.388Z,-2.18
2019-01-21T06:24:29.937Z,-2.16
2019-01-21T06:25:36.617Z,-2.17
2019-01-21T06:26:51.388Z,-2.17
2019-01-21T06:28:01.639Z,-2.19
2019-01-21T06:34:11.545Z,-2.20
2019-01-21T06:35:19.007Z,-2.20
2019-01-21T06:40:00.683Z,-2.22
2019-01-21T06:41:09.068Z,-2.22
2019-01-21T06:47:57.390Z,-2.24
2019-01-21T06:49:04.832Z,-2.24
2019-01-21T06:50:10.484Z,-2.25
2019-01-21T06:55:02.772Z,-2.25
2019-01-21T07:01:06.996Z,-2.25
2019-01-21T07:02:13.299Z,-2.25
2019-01-21T07:06:41.182Z,-2.23
2019-01-21T07:07:51.368Z,-2.24
2019-01-21T07:11:16.643Z,-2.24
2019-01-21T07:18:15.399Z,-2.25
2019-01-21T07:20:44.600Z,-2.24
2019-01-21T07:26:38.833Z,-2.23
2019-01-21T07:27:48.336Z,-2.23
2019-01-21T07:30:12.771Z,-2.24
2019-01-21T07:32:30.970Z,-2.23
2019-01-21T07:33:46.324Z,-2.21
2019-01-21T07:36:26.837Z,-2.18
2019-01-21T07:37:34.472Z,-2.18
2019-01-21T07:45:47.714Z,-2.12
2019-01-21T07:48:18.656Z,-2.12
2019-01-21T07:49:25.999Z,-2.10
2019-01-21T07:52:53.790Z,-2.08
2019-01-21T07:55:10.924Z,-2.05
2019-01-21T07:59:04.551Z,-2.04
2019-01-21T08:02:50.619Z,-2.00
2019-01-21T08:11:33.004Z,-1.89
2019-01-21T08:15:13.972Z,-1.81
2019-01-21T08:17:29.766Z,-1.81
2019-01-21T08:23:22.647Z,-1.75
2019-01-21T08:24:41.983Z,-1.72
2019-01-21T08:25:57.829Z,-1.68
2019-01-21T08:29:33.101Z,-1.56
2019-01-21T08:35:34.207Z,-1.47
2019-01-21T08:39:01.612Z,-1.36
2019-01-21T08:41:22.248Z,-1.28
2019-01-21T08:44:45.335Z,-1.24
2019-01-21T08:48:08.712Z,-1.15
2019-01-21T08:51:39.572Z,-1.08
2019-01-21T08:52:47.013Z,-1.07
2019-01-21T08:55:15.016Z,-1.00
2019-01-21T09:07:03.251Z,-0.40
2019-01-21T09:08:08.799Z,-0.33
2019-01-21T09:11:28.361Z,-0.17
2019-01-21T09:15:56.689Z,-0.01
2019-01-21T09:17:17.168Z,0.02
2019-01-21T09:18:31.132Z,0.05
2019-01-21T09:19:37.588Z,0.10
2019-01-21T09:22:06.788Z,0.31
2019-01-21T09:23:13.108Z,0.46
2019-01-21T09:24:18.720Z,0.56
2019-01-21T09:27:41.715Z,0.76
2019-01-21T09:32:21.337Z,1.21
2019-01-21T09:33:28.639Z,1.29
2019-01-21T09:35:57.838Z,1.46
2019-01-21T09:38:08.998Z,1.60
2019-01-21T09:42:39.136Z,1.88
2019-01-21T09:44:58.187Z,1.97
2019-01-21T09:46:09.574Z,2.02
2019-01-21T09:47:12.922Z,2.07
2019-01-21T09:48:16.292Z,2.11
2019-01-21T09:50:22.806Z,2.17
2019-01-21T09:51:26.672Z,2.22
2019-01-21T09:53:34.336Z,2.33
2019-01-21T10:03:07.604Z,2.73
2019-01-21T10:04:12.874Z,2.81
2019-01-21T10:06:21.236Z,3.02
2019-01-21T10:10:47.962Z,3.58
2019-01-21T10:13:00.255Z,4.22
2019-01-21T10:15:12.170Z,4.70
2019-01-21T10:16:22.104Z,4.83
2019-01-21T10:17:27.639Z,4.98
2019-01-21T10:18:37.215Z,5.07
2019-01-21T10:19:50.776Z,5.14
2019-01-21T10:20:58.045Z,5.22
2019-01-21T10:28:11.235Z,5.45
2019-01-21T10:29:16.872Z,5.33
2019-01-21T10:31:30.183Z,5.03
2019-01-21T10:32:39.539Z,4.86
2019-01-21T10:34:58.698Z,4.66
2019-01-21T10:42:17.516Z,4.49
2019-01-21T10:44:44.617Z,4.44
2019-01-21T10:49:13.692Z,4.37
2019-01-21T10:53:01.633Z,4.25
2019-01-21T10:58:37.485Z,4.27
2019-01-21T11:05:20.148Z,4.30
2019-01-21T11:08:55.721Z,4.37
2019-01-21T11:10:06.011Z,4.36
2019-01-21T11:14:36.119Z,4.47
2019-01-21T11:16:54.247Z,4.53
2019-01-21T11:20:17.796Z,4.61
2019-01-21T11:24:58.088Z,4.67
2019-01-21T11:28:28.731Z,4.73
2019-01-21T11:29:35.044Z,4.74
2019-01-21T11:30:40.588Z,4.78
2019-01-21T11:34:17.187Z,4.86
2019-01-21T11:35:26.411Z,4.88
2019-01-21T11:36:35.847Z,4.89
2019-01-21T11:40:24.372Z,4.95
2019-01-21T11:41:40.692Z,4.95
2019-01-21T11:45:40.397Z,5.02
2019-01-21T11:49:04.973Z,5.11
2019-01-21T11:53:30.421Z,5.19
2019-01-21T11:54:40.612Z,5.21
2019-01-21T11:55:46.146Z,5.27
2019-01-21T11:56:54.709Z,5.30
2019-01-21T12:01:33.529Z,5.43
2019-01-21T12:03:46.479Z,5.50
2019-01-21T12:06:26.804Z,5.56
2019-01-21T12:08:40.968Z,5.59
2019-01-21T12:09:46.487Z,5.64
2019-01-21T12:15:28.999Z,5.86
2019-01-21T12:17:51.526Z,5.81
2019-01-21T12:20:05.899Z,5.88
2019-01-21T12:21:12.238Z,5.92
2019-01-21T12:23:26.316Z,6.01
2019-01-21T12:24:30.572Z,6.07
2019-01-21T12:25:39.988Z,6.12
2019-01-21T12:26:49.171Z,6.22
2019-01-21T12:27:59.383Z,6.28
2019-01-21T12:29:07.693Z,6.33
2019-01-21T12:32:46.646Z,6.59
2019-01-21T12:36:23.147Z,6.76
2019-01-21T12:37:29.616Z,6.79
2019-01-21T12:38:38.839Z,6.86
2019-01-21T12:41:56.783Z,7.05
2019-01-21T12:43:03.277Z,7.13
2019-01-21T12:44:12.667Z,7.18
2019-01-21T12:45:18.937Z,7.25
2019-01-21T12:47:45.037Z,7.41
2019-01-21T12:51:25.809Z,7.58
2019-01-21T12:52:31.352Z,7.65
2019-01-21T12:55:19.767Z,7.79
2019-01-21T13:03:29.908Z,8.29
2019-01-21T13:04:47.343Z,8.43
2019-01-21T13:05:53.787Z,8.58
2019-01-21T13:07:04.069Z,8.63
2019-01-21T13:08:10.512Z,8.63
2019-01-21T13:09:16.679Z,8.68
2019-01-21T13:12:35.589Z,8.69
2019-01-21T13:13:43.912Z,8.65
2019-01-21T13:14:51.232Z,8.62
2019-01-21T13:23:07.583Z,8.47
2019-01-21T13:24:14.910Z,8.45
2019-01-21T13:27:38.271Z,8.29
2019-01-21T13:29:51.680Z,8.18
2019-01-21T13:31:09.999Z,8.14
2019-01-21T13:32:18.315Z,8.00
2019-01-21T13:35:52.823Z,7.74
2019-01-21T13:37:03.468Z,7.73
2019-01-21T13:39:14.576Z,7.63
2019-01-21T13:41:28.798Z,7.57
2019-01-21T13:46:19.193Z,7.43
2019-01-21T13:50:52.856Z,7.22
2019-01-21T13:52:01.199Z,7.20
2019-01-21T13:53:13.245Z,7.17
2019-01-21T13:54:22.699Z,7.14
2019-01-21T13:55:29.135Z,7.10
2019-01-21T13:57:46.406Z,7.02
2019-01-21T13:58:53.923Z,7.00
2019-01-21T14:00:03.612Z,6.98
2019-01-21T14:07:39.561Z,6.63
2019-01-21T14:16:49.693Z,6.32
2019-01-21T14:20:09.605Z,6.22
2019-01-21T14:22:27.419Z,6.15
2019-01-21T14:24:46.445Z,6.06
2019-01-21T14:31:53.788Z,5.80
2019-01-21T14:35:26.003Z,5.68
2019-01-21T14:40:00.169Z,5.62
2019-01-21T14:42:12.202Z,5.56
2019-01-21T14:43:18.505Z,5.54
2019-01-21T14:46:44.314Z,5.51
2019-01-21T14:50:20.959Z,5.42
2019-01-21T14:51:26.508Z,5.38
2019-01-21T14:52:49.973Z,5.33
2019-01-21T14:53:56.271Z,5.32
2019-01-21T14:59:41.555Z,5.24
2019-01-21T15:00:47.330Z,5.22
2019-01-21T15:05:36.915Z,5.20
2019-01-21T15:06:43.618Z,5.18
2019-01-21T15:07:49.383Z,5.15
2019-01-21T15:10:06.689Z,5.10
2019-01-21T15:11:14.317Z,5.11
2019-01-21T15:13:39.902Z,5.08
2019-01-21T15:14:50.393Z,5.08
2019-01-21T15:15:56.942Z,5.07
2019-01-21T15:17:09.673Z,5.09
2019-01-21T15:21:46.333Z,4.94
2019-01-21T15:24:05.874Z,4.86
2019-01-21T15:34:02.669Z,4.66
2019-01-21T15:35:14.231Z,4.61
2019-01-21T15:36:19.808Z,4.58
2019-01-21T15:38:41.517Z,4.58
2019-01-21T15:39:49.780Z,4.56
2019-01-21T15:48:22.548Z,4.46
2019-01-21T15:50:38.652Z,4.40
2019-01-21T15:53:19.272Z,4.35
2019-01-21T15:54:30.891Z,4.32
2019-01-21T15:56:46.224Z,4.29
2019-01-21T15:59:00.176Z,4.23
2019-01-21T16:03:44.045Z,4.23
2019-01-21T16:06:25.264Z,4.23
2019-01-21T16:12:15.384Z,4.16
2019-01-21T16:15:30.612Z,4.11
2019-01-21T16:16:52.159Z,4.10
2019-01-21T16:18:00.491Z,4.11
2019-01-21T16:19:07.032Z,4.08
2019-01-21T16:20:12.572Z,4.07
2019-01-21T16:21:21.011Z,4.04
2019-01-21T16:27:16.862Z,4.01
2019-01-21T16:28:26.209Z,4.01
2019-01-21T16:29:32.662Z,4.00
2019-01-21T16:30:39.968Z,3.99
2019-01-21T16:32:49.281Z,3.98
2019-01-21T16:36:17.227Z,3.93
2019-01-21T16:38:44.906Z,3.92
2019-01-21T16:43:28.551Z,3.89
2019-01-21T16:46:38.748Z,3.86
2019-01-21T16:47:42.847Z,3.87
2019-01-21T16:50:53.052Z,3.86
2019-01-21T16:51:56.920Z,3.86
2019-01-21T16:54:03.960Z,3.82
2019-01-21T16:56:11.004Z,3.81
2019-01-21T16:57:14.869Z,3.77
2019-01-21T16:58:19.898Z,3.79
2019-01-21T16:59:23.762Z,3.80
2019-01-21T17:02:33.979Z,3.76
2019-01-21T17:03:37.824Z,3.75
2019-01-21T17:05:47.860Z,3.78
2019-01-21T17:06:51.720Z,3.77
2019-01-21T17:07:55.577Z,3.77
2019-01-21T17:10:05.340Z,3.73
2019-01-21T17:11:09.200Z,3.73
2019-01-21T17:12:13.628Z,3.73
2019-01-21T17:13:17.483Z,3.70
2019-01-21T17:14:21.335Z,3.71
2019-01-21T17:15:25.510Z,3.71
2019-01-21T17:18:35.752Z,3.71
2019-01-21T17:21:46.987Z,3.70
2019-01-21T17:23:55.180Z,3.70
2019-01-21T17:24:59.043Z,3.69
2019-01-21T17:26:02.906Z,3.69
2019-01-21T17:29:13.106Z,3.68
2019-01-21T17:32:23.743Z,3.64
2019-01-21T17:33:27.603Z,3.64
2019-01-21T17:38:44.166Z,3.64
2019-01-21T17:46:10.779Z,3.61
2019-01-21T17:47:14.631Z,3.61
2019-01-21T17:48:18.501Z,3.61
2019-01-21T17:51:33.739Z,3.60
2019-01-21T17:52:34.534Z,3.61
2019-01-21T17:53:39.462Z,3.60
2019-01-21T17:54:43.338Z,3.59
2019-01-21T17:55:47.431Z,3.57
2019-01-21T18:01:03.984Z,3.57
2019-01-21T18:05:17.351Z,3.52
2019-01-21T18:06:22.123Z,3.53
2019-01-21T18:08:29.172Z,3.52
2019-01-21T18:09:33.028Z,3.53
2019-01-21T18:10:37.007Z,3.52
2019-01-21T18:12:44.389Z,3.53
2019-01-21T18:13:48.255Z,3.51
2019-01-21T18:15:55.357Z,3.51
2019-01-21T18:16:59.216Z,3.51
2019-01-21T18:18:03.091Z,3.52
2019-01-21T18:20:13.316Z,3.52
2019-01-21T18:21:17.186Z,3.53
2019-01-21T18:25:30.572Z,3.51
2019-01-21T18:27:38.364Z,3.51
2019-01-21T18:28:42.224Z,3.48
2019-01-21T18:31:52.423Z,3.47
2019-01-21T18:35:03.367Z,3.48
2019-01-21T18:37:10.415Z,3.48
2019-01-21T18:38:14.278Z,3.47
2019-01-21T18:39:18.251Z,3.48
2019-01-21T18:40:22.116Z,3.45
2019-01-21T18:41:26.557Z,3.45
2019-01-21T18:42:30.437Z,3.43
2019-01-21T18:44:37.459Z,3.43
2019-01-21T18:45:41.320Z,3.44
2019-01-21T18:46:46.200Z,3.44
2019-01-21T18:50:59.581Z,3.40
2019-01-21T18:54:10.751Z,3.40
2019-01-21T18:56:17.773Z,3.40
2019-01-21T18:57:21.623Z,3.39
2019-01-21T18:58:25.492Z,3.36
2019-01-21T19:03:42.046Z,3.32
2019-01-21T19:05:49.089Z,3.30
2019-01-21T19:07:56.134Z,3.28
2019-01-21T19:11:08.024Z,3.25
2019-01-21T19:13:15.075Z,3.23
2019-01-21T19:14:18.928Z,3.20
2019-01-21T19:15:24.254Z,3.19
2019-01-21T19:16:28.120Z,3.19
2019-01-21T19:17:31.975Z,3.17
2019-01-21T19:18:35.852Z,3.15
2019-01-21T19:21:46.047Z,3.12
2019-01-21T19:24:56.273Z,3.06
2019-01-21T19:27:03.315Z,3.03
2019-01-21T19:28:07.414Z,3.03
2019-01-21T19:31:19.549Z,2.98
2019-01-21T19:34:30.846Z,2.95
2019-01-21T19:37:41.028Z,2.89
2019-01-21T19:38:44.923Z,2.89
2019-01-21T19:39:48.835Z,2.88
2019-01-21T19:41:55.890Z,2.84
2019-01-21T19:42:59.739Z,2.82
2019-01-21T19:44:05.384Z,2.81
2019-01-21T19:46:12.816Z,2.80
2019-01-21T19:50:26.268Z,2.74
2019-01-21T19:51:30.139Z,2.72
2019-01-21T19:52:34.032Z,2.70
2019-01-21T19:53:37.870Z,2.68
2019-01-21T19:54:41.748Z,2.67
2019-01-21T19:57:52.028Z,2.61
2019-01-21T19:58:55.887Z,2.59
2019-01-21T20:00:00.348Z,2.59
2019-01-21T20:03:11.591Z,2.55
2019-01-21T20:04:15.448Z,2.54
2019-01-21T20:06:22.474Z,2.52
2019-01-21T20:11:39.795Z,2.46
2019-01-21T20:13:47.015Z,2.43
2019-01-21T20:15:54.356Z,2.41
2019-01-21T20:16:58.276Z,2.41
2019-01-21T20:18:02.174Z,2.40
2019-01-21T20:21:14.444Z,2.38
2019-01-21T20:22:18.313Z,2.37
2019-01-21T20:25:28.573Z,2.36
2019-01-21T20:26:32.424Z,2.36
2019-01-21T20:27:37.007Z,2.32
2019-01-21T20:29:44.311Z,2.32
2019-01-21T20:32:54.597Z,2.31
2019-01-21T20:35:01.654Z,2.31
2019-01-21T20:37:08.689Z,2.29
2019-01-21T20:39:15.836Z,2.29
2019-01-21T20:44:33.782Z,2.26
2019-01-21T20:45:37.671Z,2.26
2019-01-21T20:46:41.551Z,2.25
2019-01-21T20:48:48.567Z,2.23
2019-01-21T20:49:52.834Z,2.23
2019-01-21T20:50:56.749Z,2.23
2019-01-21T20:53:03.963Z,2.21
2019-01-21T20:55:11.484Z,2.20
2019-01-21T20:56:15.621Z,2.19
2019-01-21T20:57:19.491Z,2.18
2019-01-21T21:04:42.476Z,2.13
2019-01-21T21:05:46.820Z,2.13
2019-01-21T21:06:50.711Z,2.12
2019-01-21T21:08:59.564Z,2.11
2019-01-21T21:11:08.244Z,2.10
2019-01-21T21:12:12.104Z,2.11
2019-01-21T21:14:19.142Z,2.09
2019-01-21T21:15:24.881Z,2.08
2019-01-21T21:16:28.737Z,2.08
2019-01-21T21:17:32.584Z,2.07
2019-01-21T21:18:36.443Z,2.06
2019-01-21T21:19:40.300Z,2.06
2019-01-21T21:22:50.524Z,2.02
2019-01-21T21:23:54.390Z,2.01
2019-01-21T21:28:08.940Z,1.96
2019-01-21T21:33:27.023Z,1.95
2019-01-21T21:34:32.053Z,1.94
2019-01-21T21:35:36.176Z,1.94
2019-01-21T21:38:46.409Z,1.88
2019-01-21T21:40:53.706Z,1.90
2019-01-21T21:45:08.847Z,1.84
2019-01-21T21:46:12.947Z,1.82
2019-01-21T21:54:41.159Z,1.82
2019-01-21T21:57:52.643Z,1.81
2019-01-21T22:00:00.242Z,1.76
2019-01-21T22:01:05.395Z,1.77
2019-01-21T22:02:09.259Z,1.77
2019-01-21T22:04:16.577Z,1.76
2019-01-21T22:11:39.762Z,1.70
2019-01-21T22:13:47.984Z,1.69
2019-01-21T22:14:52.196Z,1.67
2019-01-21T22:16:59.885Z,1.69
2019-01-21T22:18:03.772Z,1.70
2019-01-21T22:19:07.955Z,1.71
2019-01-21T22:21:16.888Z,1.68
2019-01-21T22:23:24.171Z,1.68
2019-01-21T22:24:28.373Z,1.67
2019-01-21T22:26:35.651Z,1.65
2019-01-21T22:27:39.754Z,1.65
2019-01-21T22:28:44.955Z,1.64
2019-01-21T22:29:49.086Z,1.64
2019-01-21T22:30:52.951Z,1.62
2019-01-21T22:34:04.184Z,1.61
2019-01-21T22:37:14.640Z,1.59
2019-01-21T22:38:19.137Z,1.60
2019-01-21T22:42:32.779Z,1.58
2019-01-21T22:43:36.653Z,1.56
2019-01-21T22:47:50.783Z,1.56
2019-01-21T22:51:01.431Z,1.54
2019-01-21T22:56:18.845Z,1.52
2019-01-21T22:57:23.050Z,1.49
2019-01-21T22:58:27.259Z,1.47
2019-01-21T22:59:31.370Z,1.47
2019-01-21T23:00:37.091Z,1.45
2019-01-21T23:01:41.374Z,1.42
2019-01-21T23:04:51.827Z,1.46
2019-01-21T23:05:55.687Z,1.45
2019-01-21T23:09:06.552Z,1.41
2019-01-21T23:10:10.674Z,1.40
2019-01-21T23:11:14.771Z,1.41
2019-01-21T23:12:18.881Z,1.40
2019-01-21T23:15:29.947Z,1.38
2019-01-21T23:16:33.823Z,1.38
2019-01-21T23:20:47.468Z,1.35
2019-01-21T23:26:04.274Z,1.38
2019-01-21T23:27:08.565Z,1.37
2019-01-21T23:34:32.260Z,1.28
2019-01-21T23:36:39.535Z,1.28
2019-01-21T23:40:53.637Z,1.30
2019-01-21T23:43:00.991Z,1.30
2019-01-21T23:46:12.840Z,1.30
2019-01-21T23:47:16.938Z,1.30
2019-01-21T23:48:21.044Z,1.31
2019-01-21T23:49:25.166Z,1.29
